createdAt,value
2019-02-17T00:00:56.000Z,19.7
2019-02-17T00:02:11.299Z,19.7
2019-02-17T00:03:23.493Z,19.8
2019-02-17T00:04:35.000Z,19.7
2019-02-17T00:05:47.888Z,19.7
2019-02-17T00:07:00.084Z,19.8
2019-02-17T00:08:12.000Z,19.8
2019-02-17T00:09:24.475Z,19.8
2019-02-17T00:10:36.665Z,19.8
2019-02-17T00:11:48.086Z,19.8
2019-02-17T00:13:01.061Z,19.7
2019-02-17T00:14:13.254Z,19.8
2019-02-17T00:15:25.451Z,19.8
2019-02-17T00:16:37.652Z,19.8
2019-02-17T00:17:49.834Z,19.8
2019-02-17T00:19:02.033Z,19.8
2019-02-17T00:20:14.233Z,19.8
2019-02-17T00:21:26.428Z,19.8
2019-02-17T00:22:38.000Z,19.8
2019-02-17T00:23:50.821Z,19.8
2019-02-17T00:25:03.015Z,19.8
2019-02-17T00:26:15.208Z,19.8
2019-02-17T00:27:27.402Z,19.8
2019-02-17T00:28:39.000Z,19.8
2019-02-17T00:29:51.797Z,19.8
2019-02-17T00:31:03.994Z,19.8
2019-02-17T00:32:16.184Z,19.8
2019-02-17T00:33:28.377Z,19.8
2019-02-17T00:34:40.577Z,19.8
2019-02-17T00:35:52.777Z,19.8
2019-02-17T00:37:04.000Z,19.8
2019-02-17T00:38:17.166Z,19.8
2019-02-17T00:39:29.359Z,19.8
2019-02-17T00:40:41.000Z,19.8
2019-02-17T00:41:53.756Z,19.8
2019-02-17T00:44:18.000Z,19.8
2019-02-17T00:45:30.336Z,19.8
2019-02-17T00:46:42.053Z,19.8
2019-02-17T00:47:54.727Z,19.8
2019-02-17T00:49:06.919Z,19.8
2019-02-17T00:50:19.123Z,19.8
2019-02-17T00:51:31.319Z,19.8
2019-02-17T00:52:43.000Z,19.8
2019-02-17T00:53:55.712Z,19.8
2019-02-17T00:55:07.913Z,19.8
2019-02-17T00:56:20.094Z,19.8
2019-02-17T00:57:32.287Z,19.8
2019-02-17T00:58:44.000Z,19.8
2019-02-17T00:59:56.689Z,19.8
2019-02-17T01:01:08.885Z,19.8
2019-02-17T01:02:21.080Z,19.8
2019-02-17T01:03:33.273Z,19.8
2019-02-17T01:04:45.000Z,19.8
2019-02-17T01:05:57.065Z,19.8
2019-02-17T01:08:22.058Z,19.8
2019-02-17T01:09:34.024Z,19.8
2019-02-17T01:10:46.445Z,19.8
2019-02-17T01:11:58.664Z,19.8
2019-02-17T01:13:10.000Z,19.8
2019-02-17T01:14:23.000Z,19.8
2019-02-17T01:15:35.223Z,19.8
2019-02-17T01:16:47.000Z,19.8
2019-02-17T01:17:59.617Z,19.8
2019-02-17T01:19:11.820Z,19.8
2019-02-17T01:20:24.013Z,19.8
2019-02-17T01:21:36.211Z,19.8
2019-02-17T01:22:48.400Z,19.8
2019-02-17T01:24:00.597Z,19.8
2019-02-17T01:25:12.791Z,19.8
2019-02-17T01:26:24.099Z,19.8
2019-02-17T01:27:37.186Z,19.8
2019-02-17T01:28:49.000Z,19.9
2019-02-17T01:30:01.573Z,19.8
2019-02-17T01:31:13.766Z,19.8
2019-02-17T01:32:25.097Z,19.8
2019-02-17T01:33:38.157Z,19.8
2019-02-17T01:34:50.359Z,19.8
2019-02-17T01:36:02.555Z,19.8
2019-02-17T01:37:14.744Z,19.8
2019-02-17T01:38:26.941Z,19.8
2019-02-17T01:39:39.133Z,19.8
2019-02-17T01:40:51.333Z,19.8
2019-02-17T01:42:03.000Z,19.8
2019-02-17T01:43:15.727Z,19.9
2019-02-17T01:44:27.919Z,19.8
2019-02-17T01:45:40.110Z,19.8
2019-02-17T01:46:52.318Z,19.9
2019-02-17T01:48:04.510Z,19.9
2019-02-17T01:49:16.711Z,19.8
2019-02-17T01:50:28.906Z,19.9
2019-02-17T01:51:41.100Z,19.9
2019-02-17T01:52:53.293Z,19.8
2019-02-17T01:54:05.049Z,19.9
2019-02-17T01:56:29.885Z,19.9
2019-02-17T01:57:42.081Z,19.8
2019-02-17T01:58:54.271Z,19.9
2019-02-17T02:00:06.476Z,19.8
2019-02-17T02:01:18.673Z,19.9
2019-02-17T02:02:30.871Z,19.9
2019-02-17T02:03:43.007Z,19.9
2019-02-17T02:04:55.259Z,19.8
2019-02-17T02:06:07.457Z,19.9
2019-02-17T02:07:19.646Z,19.9
2019-02-17T02:08:31.843Z,19.9
2019-02-17T02:09:44.039Z,19.9
2019-02-17T02:10:56.000Z,19.9
2019-02-17T02:12:08.438Z,19.9
2019-02-17T02:13:20.620Z,19.9
2019-02-17T02:14:32.821Z,19.9
2019-02-17T02:15:45.015Z,19.9
2019-02-17T02:16:57.000Z,19.9
2019-02-17T02:18:09.412Z,19.9
2019-02-17T02:19:21.597Z,19.9
2019-02-17T02:20:33.803Z,19.9
2019-02-17T02:21:45.990Z,19.9
2019-02-17T02:22:58.191Z,19.9
2019-02-17T02:24:10.388Z,19.9
2019-02-17T02:25:22.580Z,19.9
2019-02-17T02:26:34.782Z,19.8
2019-02-17T02:27:46.097Z,19.9
2019-02-17T02:28:59.000Z,19.9
2019-02-17T02:30:11.364Z,19.9
2019-02-17T02:31:23.558Z,19.8
2019-02-17T02:32:35.756Z,19.9
2019-02-17T02:33:47.947Z,19.9
2019-02-17T02:35:00.148Z,19.9
2019-02-17T02:36:12.338Z,19.9
2019-02-17T02:37:24.542Z,19.9
2019-02-17T02:38:36.727Z,19.9
2019-02-17T02:39:48.093Z,19.9
2019-02-17T02:41:01.000Z,19.9
2019-02-17T02:42:13.323Z,19.9
2019-02-17T02:43:25.544Z,19.9
2019-02-17T02:44:37.705Z,19.9
2019-02-17T02:45:49.906Z,19.9
2019-02-17T02:47:02.107Z,19.9
2019-02-17T02:48:14.304Z,19.9
2019-02-17T02:49:26.048Z,19.9
2019-02-17T02:50:38.687Z,19.9
2019-02-17T02:51:50.089Z,19.9
2019-02-17T02:53:03.000Z,19.9
2019-02-17T02:54:15.000Z,19.9
2019-02-17T02:56:39.668Z,19.9
2019-02-17T02:57:51.867Z,19.9
2019-02-17T02:59:04.062Z,19.9
2019-02-17T03:00:16.257Z,19.9
2019-02-17T03:01:28.451Z,19.9
2019-02-17T03:02:40.649Z,19.9
2019-02-17T03:03:52.849Z,19.9
2019-02-17T03:05:05.036Z,19.9
2019-02-17T03:07:29.437Z,19.9
2019-02-17T03:08:41.623Z,19.9
2019-02-17T03:09:53.082Z,19.9
2019-02-17T03:11:06.019Z,19.9
2019-02-17T03:12:18.217Z,19.9
2019-02-17T03:13:30.041Z,19.9
2019-02-17T03:14:42.671Z,19.9
2019-02-17T03:15:54.000Z,19.9
2019-02-17T03:17:06.000Z,19.9
2019-02-17T03:18:19.194Z,19.9
2019-02-17T03:19:31.386Z,19.9
2019-02-17T03:20:43.586Z,19.9
2019-02-17T03:21:55.778Z,19.9
2019-02-17T03:23:07.000Z,19.9
2019-02-17T03:24:20.177Z,19.9
2019-02-17T03:25:32.366Z,19.9
2019-02-17T03:26:44.569Z,19.9
2019-02-17T03:27:56.075Z,19.9
2019-02-17T03:29:08.000Z,19.9
2019-02-17T03:30:21.145Z,19.9
2019-02-17T03:31:33.347Z,19.9
2019-02-17T03:32:45.540Z,19.9
2019-02-17T03:33:57.742Z,19.9
2019-02-17T03:35:09.927Z,19.9
2019-02-17T03:36:22.139Z,19.9
2019-02-17T03:37:34.325Z,19.9
2019-02-17T03:38:46.515Z,19.9
2019-02-17T03:39:58.713Z,19.9
2019-02-17T03:41:10.000Z,19.9
2019-02-17T03:42:23.013Z,19.9
2019-02-17T03:43:35.306Z,19.9
2019-02-17T03:44:47.508Z,19.9
2019-02-17T03:45:59.694Z,19.9
2019-02-17T03:47:11.904Z,19.9
2019-02-17T03:48:24.083Z,19.9
2019-02-17T03:49:36.287Z,19.9
2019-02-17T03:50:48.477Z,19.9
2019-02-17T03:52:00.678Z,19.9
2019-02-17T03:53:12.000Z,19.9
2019-02-17T03:54:25.070Z,19.9
2019-02-17T03:56:49.460Z,19.9
2019-02-17T03:58:01.656Z,19.9
2019-02-17T03:59:13.844Z,19.9
2019-02-17T04:00:26.041Z,19.9
2019-02-17T04:01:38.236Z,19.9
2019-02-17T04:02:50.446Z,19.9
2019-02-17T04:04:02.634Z,19.9
2019-02-17T04:05:14.000Z,19.9
2019-02-17T04:06:27.000Z,19.9
2019-02-17T04:07:39.213Z,19.9
2019-02-17T04:08:51.408Z,19.9
2019-02-17T04:10:03.615Z,19.9
2019-02-17T04:11:15.798Z,19.9
2019-02-17T04:12:28.004Z,19.9
2019-02-17T04:13:40.199Z,19.9
2019-02-17T04:14:52.394Z,19.9
2019-02-17T04:16:04.589Z,19.9
2019-02-17T04:17:16.000Z,19.9
2019-02-17T04:18:28.982Z,19.9
2019-02-17T04:19:41.179Z,19.9
2019-02-17T04:20:53.000Z,19.9
2019-02-17T04:22:05.568Z,19.9
2019-02-17T04:23:17.762Z,19.9
2019-02-17T04:24:29.955Z,19.9
2019-02-17T04:25:42.153Z,19.9
2019-02-17T04:26:54.353Z,20
2019-02-17T04:28:06.000Z,19.9
2019-02-17T04:29:18.736Z,19.9
2019-02-17T04:30:30.939Z,19.9
2019-02-17T04:31:43.137Z,19.9
2019-02-17T04:32:55.334Z,20
2019-02-17T04:34:07.527Z,20
2019-02-17T04:35:19.000Z,19.9
2019-02-17T04:36:31.918Z,20
2019-02-17T04:37:44.132Z,20
2019-02-17T04:38:56.310Z,20
2019-02-17T04:40:08.509Z,20
2019-02-17T04:41:20.000Z,20
2019-02-17T04:42:32.000Z,20
2019-02-17T04:43:45.093Z,20
2019-02-17T04:44:57.284Z,20
2019-02-17T04:46:09.048Z,20
2019-02-17T04:47:21.677Z,20
2019-02-17T04:48:33.880Z,20
2019-02-17T04:49:46.000Z,20
2019-02-17T04:50:58.268Z,20
2019-02-17T04:52:10.456Z,20
2019-02-17T04:53:22.000Z,20
2019-02-17T04:54:34.909Z,20
2019-02-17T04:55:47.044Z,20
2019-02-17T04:56:59.000Z,20
2019-02-17T04:58:11.437Z,20
2019-02-17T04:59:23.638Z,20
2019-02-17T05:00:35.870Z,20
2019-02-17T05:01:48.042Z,20
2019-02-17T05:03:00.227Z,20
2019-02-17T05:04:12.000Z,20
2019-02-17T05:05:24.000Z,20
2019-02-17T05:06:36.819Z,20
2019-02-17T05:07:49.034Z,20
2019-02-17T05:09:01.203Z,20
2019-02-17T05:10:13.406Z,20
2019-02-17T05:11:25.000Z,20
2019-02-17T05:12:37.078Z,20
2019-02-17T05:13:49.985Z,20
2019-02-17T05:15:02.184Z,20
2019-02-17T05:16:14.377Z,20
2019-02-17T05:17:26.000Z,20
2019-02-17T05:18:38.767Z,20
2019-02-17T05:19:50.960Z,20
2019-02-17T05:21:03.000Z,20
2019-02-17T05:22:15.352Z,20
2019-02-17T05:23:27.555Z,20
2019-02-17T05:24:39.746Z,20
2019-02-17T05:25:51.951Z,20
2019-02-17T05:27:04.169Z,20
2019-02-17T05:28:16.337Z,20
2019-02-17T05:29:28.000Z,20
2019-02-17T05:30:40.736Z,20
2019-02-17T05:33:05.118Z,20
2019-02-17T05:34:17.000Z,20
2019-02-17T05:35:29.511Z,20
2019-02-17T05:36:41.708Z,20
2019-02-17T05:37:53.904Z,20
2019-02-17T05:39:06.096Z,20
2019-02-17T05:40:18.000Z,20
2019-02-17T05:41:30.000Z,20
2019-02-17T05:42:42.688Z,20
2019-02-17T05:43:54.877Z,20
2019-02-17T05:45:07.072Z,20
2019-02-17T05:46:19.273Z,20
2019-02-17T05:47:31.000Z,20
2019-02-17T05:48:43.670Z,20
2019-02-17T05:49:55.854Z,20
2019-02-17T05:51:08.061Z,20
2019-02-17T05:52:20.262Z,20
2019-02-17T05:53:32.000Z,20
2019-02-17T05:54:44.000Z,20
2019-02-17T05:55:56.008Z,20
2019-02-17T05:57:09.032Z,20
2019-02-17T05:58:21.233Z,20
2019-02-17T05:59:33.041Z,20
2019-02-17T06:00:45.620Z,20
2019-02-17T06:01:57.812Z,20
2019-02-17T06:03:10.018Z,20
2019-02-17T06:04:22.211Z,20
2019-02-17T06:05:34.000Z,20
2019-02-17T06:06:46.599Z,20
2019-02-17T06:07:58.791Z,20
2019-02-17T06:09:10.000Z,20.1
2019-02-17T06:10:23.190Z,20.1
2019-02-17T06:11:35.383Z,20
2019-02-17T06:12:47.581Z,20.1
2019-02-17T06:13:59.771Z,20
2019-02-17T06:15:11.966Z,20.1
2019-02-17T06:16:24.017Z,20.1
2019-02-17T06:17:36.366Z,20
2019-02-17T06:18:48.560Z,20.1
2019-02-17T06:21:12.951Z,20.1
2019-02-17T06:22:25.142Z,20.1
2019-02-17T06:23:37.000Z,20.1
2019-02-17T06:24:49.531Z,20.1
2019-02-17T06:26:01.731Z,20.1
2019-02-17T06:27:13.933Z,20.1
2019-02-17T06:28:26.136Z,20.1
2019-02-17T06:29:38.000Z,20.1
2019-02-17T06:30:50.510Z,20.1
2019-02-17T06:32:02.706Z,20.1
2019-02-17T06:33:14.908Z,20.1
2019-02-17T06:34:27.107Z,20.1
2019-02-17T06:35:39.300Z,20
2019-02-17T06:36:51.497Z,20.1
2019-02-17T06:38:03.000Z,20.1
2019-02-17T06:39:15.886Z,20.1
2019-02-17T06:40:28.084Z,20.1
2019-02-17T06:41:40.000Z,20.1
2019-02-17T06:42:52.481Z,20.1
2019-02-17T06:44:04.665Z,20.1
2019-02-17T06:45:16.861Z,20.1
2019-02-17T06:46:29.053Z,20.1
2019-02-17T06:47:41.246Z,20.1
2019-02-17T06:48:53.444Z,20.1
2019-02-17T06:50:05.631Z,20.1
2019-02-17T06:51:17.829Z,20.1
2019-02-17T06:52:30.023Z,20.1
2019-02-17T06:53:42.000Z,20.1
2019-02-17T06:54:54.041Z,20.1
2019-02-17T06:56:06.603Z,20.1
2019-02-17T06:57:18.797Z,20.1
2019-02-17T06:58:30.991Z,20.1
2019-02-17T06:59:43.000Z,20.1
2019-02-17T07:00:55.379Z,20.1
2019-02-17T07:02:07.574Z,20.1
2019-02-17T07:03:19.764Z,20.1
2019-02-17T07:04:31.968Z,20.1
2019-02-17T07:05:44.000Z,20.1
2019-02-17T07:06:56.348Z,20.1
2019-02-17T07:08:08.055Z,20.1
2019-02-17T07:09:20.734Z,20.1
2019-02-17T07:10:32.931Z,20.1
2019-02-17T07:11:45.128Z,20.1
2019-02-17T07:12:57.316Z,20.1
2019-02-17T07:14:09.051Z,20.1
2019-02-17T07:15:21.713Z,20.1
2019-02-17T07:16:33.896Z,20.1
2019-02-17T07:17:46.000Z,20.1
2019-02-17T07:18:58.028Z,20.1
2019-02-17T07:20:10.563Z,20.1
2019-02-17T07:21:22.000Z,20.1
2019-02-17T07:22:34.870Z,20.1
2019-02-17T07:23:47.075Z,20.1
2019-02-17T07:24:59.258Z,20.1
2019-02-17T07:26:11.449Z,20.1
2019-02-17T07:27:23.649Z,20.1
2019-02-17T07:28:35.000Z,20.1
2019-02-17T07:29:48.000Z,20.2
2019-02-17T07:31:00.231Z,20.2
2019-02-17T07:32:12.426Z,20.1
2019-02-17T07:33:24.000Z,20.1
2019-02-17T07:34:36.808Z,20.1
2019-02-17T07:35:48.000Z,20.2
2019-02-17T07:37:01.201Z,20.2
2019-02-17T07:38:13.039Z,20.2
2019-02-17T07:39:25.593Z,20.2
2019-02-17T07:40:37.794Z,20.2
2019-02-17T07:41:49.000Z,20.2
2019-02-17T07:43:02.163Z,20.2
2019-02-17T07:44:14.390Z,20.2
2019-02-17T07:45:26.552Z,20.2
2019-02-17T07:46:38.754Z,20.2
2019-02-17T07:47:50.943Z,20.2
2019-02-17T07:49:03.144Z,20.2
2019-02-17T07:50:15.000Z,20.2
2019-02-17T07:51:27.529Z,20.2
2019-02-17T07:52:39.072Z,20.2
2019-02-17T07:53:51.000Z,20.2
2019-02-17T07:55:04.000Z,20.2
2019-02-17T07:56:16.301Z,20.2
2019-02-17T07:57:28.000Z,20.2
2019-02-17T07:58:40.691Z,20.2
2019-02-17T07:59:52.890Z,20.2
2019-02-17T08:01:05.073Z,20.2
2019-02-17T08:02:17.286Z,20.2
2019-02-17T08:03:29.467Z,20.2
2019-02-17T08:04:41.000Z,20.2
2019-02-17T08:05:53.085Z,20.2
2019-02-17T08:07:06.047Z,20.2
2019-02-17T08:09:30.045Z,20.2
2019-02-17T08:10:42.626Z,20.2
2019-02-17T08:11:54.826Z,20.2
2019-02-17T08:13:07.023Z,20.2
2019-02-17T08:14:19.212Z,20.2
2019-02-17T08:15:31.421Z,20.2
2019-02-17T08:16:43.596Z,20.2
2019-02-17T08:17:55.787Z,20.2
2019-02-17T08:19:07.984Z,20.2
2019-02-17T08:20:20.186Z,20.2
2019-02-17T08:21:32.379Z,20.2
2019-02-17T08:22:44.563Z,20.2
2019-02-17T08:23:56.764Z,20.2
2019-02-17T08:25:08.958Z,20.2
2019-02-17T08:26:21.015Z,20.2
2019-02-17T08:27:33.491Z,20.2
2019-02-17T08:28:45.537Z,20.2
2019-02-17T08:29:57.000Z,20.2
2019-02-17T08:31:09.092Z,20.2
2019-02-17T08:32:22.126Z,20.2
2019-02-17T08:33:34.318Z,20.2
2019-02-17T08:34:46.000Z,20.2
2019-02-17T08:35:58.706Z,20.2
2019-02-17T08:37:10.905Z,20.2
2019-02-17T08:38:23.095Z,20.2
2019-02-17T08:39:35.285Z,20.2
2019-02-17T08:40:47.488Z,20.2
2019-02-17T08:41:59.000Z,20.2
2019-02-17T08:43:11.869Z,20.2
2019-02-17T08:44:24.069Z,20.2
2019-02-17T08:45:36.253Z,20.2
2019-02-17T08:46:48.443Z,20.2
2019-02-17T08:48:00.642Z,20.2
2019-02-17T08:49:12.839Z,20.2
2019-02-17T08:50:25.023Z,20.2
2019-02-17T08:51:37.218Z,20.2
2019-02-17T08:52:49.415Z,20.2
2019-02-17T08:54:01.000Z,20.2
2019-02-17T08:55:13.806Z,20.2
2019-02-17T08:56:25.998Z,20.2
2019-02-17T08:57:38.192Z,20.2
2019-02-17T08:58:50.388Z,20.2
2019-02-17T09:00:02.580Z,20.2
2019-02-17T09:01:14.816Z,20.2
2019-02-17T09:02:26.097Z,20.2
2019-02-17T09:03:39.015Z,20.2
2019-02-17T09:04:51.357Z,20.2
2019-02-17T09:06:03.000Z,20.2
2019-02-17T09:07:15.743Z,20.2
2019-02-17T09:08:27.935Z,20.2
2019-02-17T09:09:40.150Z,20.2
2019-02-17T09:10:52.032Z,20.2
2019-02-17T09:12:04.518Z,20.2
2019-02-17T09:13:16.716Z,20.2
2019-02-17T09:14:28.911Z,20.2
2019-02-17T09:15:41.098Z,20.2
2019-02-17T09:16:53.000Z,20.2
2019-02-17T09:18:05.491Z,20.2
2019-02-17T09:19:17.684Z,20.2
2019-02-17T09:21:42.078Z,20.2
2019-02-17T09:22:54.269Z,20.2
2019-02-17T09:24:06.046Z,20.2
2019-02-17T09:25:18.653Z,20.2
2019-02-17T09:26:30.849Z,20.2
2019-02-17T09:27:43.036Z,20.2
2019-02-17T09:28:55.236Z,20.2
2019-02-17T09:30:07.000Z,20.2
2019-02-17T09:31:19.000Z,20.2
2019-02-17T09:32:31.819Z,20.2
2019-02-17T09:33:44.000Z,20.2
2019-02-17T09:34:56.208Z,20.2
2019-02-17T09:36:08.394Z,20.2
2019-02-17T09:37:20.593Z,20.2
2019-02-17T09:38:32.000Z,20.2
2019-02-17T09:39:44.985Z,20.2
2019-02-17T09:40:57.018Z,20.2
2019-02-17T09:42:09.000Z,20.2
2019-02-17T09:43:21.567Z,20.2
2019-02-17T09:44:33.757Z,20.2
2019-02-17T09:45:45.952Z,20.2
2019-02-17T09:46:58.145Z,20.2
2019-02-17T09:49:22.530Z,20.2
2019-02-17T09:50:34.726Z,20.2
2019-02-17T09:51:46.921Z,20.2
2019-02-17T09:52:59.143Z,20.2
2019-02-17T09:54:11.304Z,20.2
2019-02-17T09:55:23.500Z,20.2
2019-02-17T09:56:35.701Z,20.2
2019-02-17T09:57:47.892Z,20.2
2019-02-17T09:59:00.008Z,20.2
2019-02-17T10:00:12.000Z,20.2
2019-02-17T10:01:24.000Z,20.2
2019-02-17T10:02:36.665Z,20.2
2019-02-17T10:03:48.864Z,20.2
2019-02-17T10:05:01.078Z,20.2
2019-02-17T10:06:13.000Z,20.2
2019-02-17T10:07:25.000Z,20.2
2019-02-17T10:09:49.832Z,20.2
2019-02-17T10:11:02.017Z,20.2
2019-02-17T10:12:14.229Z,20.2
2019-02-17T10:13:26.410Z,20.2
2019-02-17T10:14:38.609Z,20.2
2019-02-17T10:15:50.799Z,20.2
2019-02-17T10:17:02.993Z,20.2
2019-02-17T10:18:15.185Z,20.2
2019-02-17T10:19:27.379Z,20.2
2019-02-17T10:20:39.575Z,20.2
2019-02-17T10:21:51.000Z,20.2
2019-02-17T10:23:03.969Z,20.2
2019-02-17T10:24:16.152Z,20.2
2019-02-17T10:25:28.000Z,20.2
2019-02-17T10:26:40.551Z,20.2
2019-02-17T10:27:52.000Z,20.2
2019-02-17T10:29:04.930Z,20.2
2019-02-17T10:30:17.000Z,20.2
2019-02-17T10:31:29.323Z,20.2
2019-02-17T10:32:41.513Z,20.2
2019-02-17T10:33:53.707Z,20.2
2019-02-17T10:35:05.903Z,20.2
2019-02-17T10:36:18.000Z,20.2
2019-02-17T10:37:30.029Z,20.2
2019-02-17T10:38:42.481Z,20.2
2019-02-17T10:39:54.000Z,20.2
2019-02-17T10:41:06.885Z,20.2
2019-02-17T10:42:19.000Z,20.2
2019-02-17T10:43:31.267Z,20.2
2019-02-17T10:44:43.045Z,20.2
2019-02-17T10:45:55.649Z,20.2
2019-02-17T10:47:07.845Z,20.2
2019-02-17T10:48:20.037Z,20.2
2019-02-17T10:49:32.023Z,20.2
2019-02-17T10:50:44.425Z,20.2
2019-02-17T10:51:56.616Z,20.2
2019-02-17T10:53:08.823Z,20.2
2019-02-17T10:54:20.000Z,20.2
2019-02-17T10:55:33.205Z,20.2
2019-02-17T10:57:57.603Z,20.2
2019-02-17T10:59:09.792Z,20.2
2019-02-17T11:00:21.098Z,20.2
2019-02-17T11:01:34.180Z,20.2
2019-02-17T11:02:46.368Z,20.2
2019-02-17T11:03:58.566Z,20.2
2019-02-17T11:05:10.000Z,20.2
2019-02-17T11:06:22.000Z,20.2
2019-02-17T11:07:35.151Z,20.2
2019-02-17T11:08:47.034Z,20.2
2019-02-17T11:09:59.538Z,20.2
2019-02-17T11:11:11.000Z,20.2
2019-02-17T11:12:23.920Z,20.2
2019-02-17T11:13:36.116Z,20.2
2019-02-17T11:14:48.320Z,20.2
2019-02-17T11:16:00.497Z,20.1
2019-02-17T11:17:12.696Z,20.2
2019-02-17T11:18:24.000Z,20.1
2019-02-17T11:19:37.083Z,20.2
2019-02-17T11:20:49.276Z,20.1
2019-02-17T11:22:01.471Z,20.1
2019-02-17T11:23:13.664Z,20.2
2019-02-17T11:24:25.008Z,20.1
2019-02-17T11:25:38.060Z,20.1
2019-02-17T11:26:50.246Z,20.1
2019-02-17T11:28:02.044Z,20.1
2019-02-17T11:29:14.640Z,20.1
2019-02-17T11:30:26.000Z,20.1
2019-02-17T11:31:39.020Z,20.1
2019-02-17T11:32:51.227Z,20.1
2019-02-17T11:34:03.000Z,20.1
2019-02-17T11:35:15.608Z,20.1
2019-02-17T11:36:27.800Z,20.1
2019-02-17T11:37:39.997Z,20.1
2019-02-17T11:38:52.186Z,20.1
2019-02-17T11:40:04.387Z,20.1
2019-02-17T11:42:28.772Z,20.1
2019-02-17T11:43:40.968Z,20.1
2019-02-17T11:44:53.162Z,20.1
2019-02-17T11:46:05.352Z,20.1
2019-02-17T11:47:17.551Z,20.1
2019-02-17T11:48:29.000Z,20.1
2019-02-17T11:49:41.093Z,20.1
2019-02-17T11:50:54.013Z,20.1
2019-02-17T11:52:06.326Z,20.1
2019-02-17T11:53:18.516Z,20.1
2019-02-17T11:54:30.711Z,20.1
2019-02-17T11:55:42.906Z,20.1
2019-02-17T11:56:55.094Z,20.1
2019-02-17T11:58:07.301Z,20.1
2019-02-17T11:59:19.048Z,20.1
2019-02-17T12:00:31.683Z,20.1
2019-02-17T12:01:43.867Z,20.1
2019-02-17T12:02:56.075Z,20.1
2019-02-17T12:04:08.261Z,20.1
2019-02-17T12:05:20.047Z,20.1
2019-02-17T12:06:32.000Z,20.1
2019-02-17T12:07:44.849Z,20.1
2019-02-17T12:08:57.003Z,20.1
2019-02-17T12:10:09.002Z,20.1
2019-02-17T12:11:21.419Z,20.1
2019-02-17T12:12:33.619Z,20.1
2019-02-17T12:13:45.807Z,20.1
2019-02-17T12:14:58.011Z,20.1
2019-02-17T12:16:10.207Z,20.1
2019-02-17T12:17:22.396Z,20.1
2019-02-17T12:18:34.000Z,20.1
2019-02-17T12:19:46.787Z,20.1
2019-02-17T12:22:11.171Z,20.1
2019-02-17T12:23:23.036Z,20.1
2019-02-17T12:24:35.582Z,20
2019-02-17T12:25:47.754Z,20.1
2019-02-17T12:26:59.953Z,20
2019-02-17T12:28:12.150Z,20
2019-02-17T12:29:24.336Z,20.1
2019-02-17T12:30:36.000Z,20
2019-02-17T12:31:48.722Z,20
2019-02-17T12:33:00.091Z,20
2019-02-17T12:34:13.120Z,20
2019-02-17T12:35:25.000Z,20
2019-02-17T12:36:37.518Z,20
2019-02-17T12:37:49.697Z,20
2019-02-17T12:39:01.000Z,20.1
2019-02-17T12:40:14.082Z,20
2019-02-17T12:41:26.028Z,20
2019-02-17T12:42:38.000Z,20.1
2019-02-17T12:43:50.673Z,20
2019-02-17T12:46:15.056Z,20
2019-02-17T12:47:27.254Z,20
2019-02-17T12:48:39.435Z,20.1
2019-02-17T12:49:51.627Z,20
2019-02-17T12:51:03.826Z,20.1
2019-02-17T12:52:16.022Z,20
2019-02-17T12:53:28.216Z,20.1
2019-02-17T12:54:40.000Z,20.1
2019-02-17T12:55:52.599Z,20.1
2019-02-17T12:57:04.799Z,20.1
2019-02-17T12:58:16.993Z,20.1
2019-02-17T12:59:29.175Z,20
2019-02-17T13:00:41.377Z,20.1
2019-02-17T13:01:53.568Z,20.1
2019-02-17T13:03:05.771Z,20.1
2019-02-17T13:04:17.955Z,20.1
2019-02-17T13:05:30.151Z,20.1
2019-02-17T13:06:42.000Z,20.1
2019-02-17T13:07:54.535Z,20.1
2019-02-17T13:09:06.072Z,20.1
2019-02-17T13:10:18.924Z,20.1
2019-02-17T13:11:31.120Z,20.1
2019-02-17T13:12:43.450Z,20.1
2019-02-17T13:13:55.508Z,20.1
2019-02-17T13:15:07.704Z,20.1
2019-02-17T13:16:19.899Z,20.1
2019-02-17T13:17:32.085Z,20.1
2019-02-17T13:18:44.000Z,20.1
2019-02-17T13:19:56.483Z,20.1
2019-02-17T13:21:08.670Z,20.1
2019-02-17T13:22:20.000Z,20.1
2019-02-17T13:23:33.058Z,20.1
2019-02-17T13:24:45.254Z,20.1
2019-02-17T13:25:57.454Z,20.1
2019-02-17T13:27:09.642Z,20.1
2019-02-17T13:28:21.859Z,20.1
2019-02-17T13:29:34.000Z,20.1
2019-02-17T13:30:46.219Z,20.1
2019-02-17T13:31:58.413Z,20.1
2019-02-17T13:33:10.613Z,20.1
2019-02-17T13:34:22.808Z,20.1
2019-02-17T13:35:34.995Z,20.1
2019-02-17T13:36:47.193Z,20.1
2019-02-17T13:37:59.383Z,20.1
2019-02-17T13:39:11.586Z,20.1
2019-02-17T13:40:23.778Z,20.1
2019-02-17T13:41:35.972Z,20.1
2019-02-17T13:42:48.166Z,20.1
2019-02-17T13:44:00.361Z,20.1
2019-02-17T13:46:24.755Z,20.1
2019-02-17T13:47:36.940Z,20.1
2019-02-17T13:48:49.133Z,20.1
2019-02-17T13:50:01.328Z,20.1
2019-02-17T13:51:13.524Z,20.1
2019-02-17T13:52:25.731Z,20.1
2019-02-17T13:53:37.909Z,20.1
2019-02-17T13:54:50.103Z,20.1
2019-02-17T13:56:02.302Z,20.1
2019-02-17T13:58:26.683Z,20.1
2019-02-17T13:59:38.087Z,20.2
2019-02-17T14:00:51.067Z,20.2
2019-02-17T14:02:03.267Z,20.4
2019-02-17T14:03:15.046Z,20.6
2019-02-17T14:04:27.065Z,20.6
2019-02-17T14:05:39.084Z,20.6
2019-02-17T14:06:52.037Z,20.6
2019-02-17T14:08:04.237Z,20.6
2019-02-17T14:09:16.427Z,20.6
2019-02-17T14:10:28.640Z,20.5
2019-02-17T14:11:40.817Z,20.5
2019-02-17T14:12:53.000Z,20.5
2019-02-17T14:14:05.209Z,20.4
2019-02-17T14:15:17.393Z,20.4
2019-02-17T14:16:29.000Z,20.4
2019-02-17T14:17:41.785Z,20.4
2019-02-17T14:18:53.976Z,20.4
2019-02-17T14:20:06.178Z,20.4
2019-02-17T14:21:18.363Z,20.4
2019-02-17T14:22:30.565Z,20.3
2019-02-17T14:23:42.755Z,20.3
2019-02-17T14:24:54.945Z,20.3
2019-02-17T14:26:07.136Z,20.3
2019-02-17T14:27:19.339Z,20.3
2019-02-17T14:28:31.532Z,20.2
2019-02-17T14:29:43.729Z,20.2
2019-02-17T14:30:55.918Z,20.2
2019-02-17T14:32:08.107Z,20.2
2019-02-17T14:33:20.303Z,20.2
2019-02-17T14:34:32.506Z,20.2
2019-02-17T14:35:44.691Z,20.2
2019-02-17T14:36:56.890Z,20.2
2019-02-17T14:38:09.077Z,20.2
2019-02-17T14:39:21.278Z,20.1
2019-02-17T14:40:33.470Z,20.1
2019-02-17T14:41:45.000Z,20.1
2019-02-17T14:42:57.853Z,20.1
2019-02-17T14:45:22.242Z,20.1
2019-02-17T14:46:34.456Z,20.1
2019-02-17T14:47:46.633Z,20.1
2019-02-17T14:48:58.829Z,20.1
2019-02-17T14:50:11.024Z,20.1
2019-02-17T14:51:23.216Z,20.1
2019-02-17T14:52:35.000Z,20.1
2019-02-17T14:53:47.606Z,20.1
2019-02-17T14:54:59.794Z,20.1
2019-02-17T14:56:11.990Z,20
2019-02-17T14:59:48.569Z,20
2019-02-17T15:01:00.767Z,20
2019-02-17T15:02:12.957Z,20
2019-02-17T15:03:25.148Z,20
2019-02-17T15:04:37.347Z,20
2019-02-17T15:05:49.542Z,20
2019-02-17T15:07:01.731Z,20
2019-02-17T15:08:13.938Z,20
2019-02-17T15:09:26.123Z,20
2019-02-17T15:10:38.320Z,20
2019-02-17T15:11:50.508Z,20
2019-02-17T15:13:02.704Z,20
2019-02-17T15:14:14.895Z,20
2019-02-17T15:15:27.090Z,20
2019-02-17T15:16:39.288Z,20
2019-02-17T15:17:51.000Z,20
2019-02-17T15:19:03.674Z,20
2019-02-17T15:20:15.861Z,20
2019-02-17T15:21:28.066Z,20
2019-02-17T15:22:40.025Z,20
2019-02-17T15:23:52.447Z,20
2019-02-17T15:25:04.639Z,20
2019-02-17T15:26:16.842Z,20
2019-02-17T15:27:29.034Z,20
2019-02-17T15:28:41.232Z,20
2019-02-17T15:29:53.426Z,20
2019-02-17T15:31:05.614Z,20
2019-02-17T15:32:17.000Z,20
2019-02-17T15:34:42.196Z,20
2019-02-17T15:35:54.393Z,20
2019-02-17T15:37:06.579Z,19.9
2019-02-17T15:38:18.783Z,19.9
2019-02-17T15:39:30.969Z,20
2019-02-17T15:40:43.167Z,19.9
2019-02-17T15:41:55.369Z,19.9
2019-02-17T15:43:07.054Z,19.9
2019-02-17T15:44:19.745Z,19.9
2019-02-17T15:45:31.937Z,19.9
2019-02-17T15:46:44.145Z,19.9
2019-02-17T15:47:56.032Z,19.9
2019-02-17T15:49:08.517Z,19.9
2019-02-17T15:50:20.719Z,19.9
2019-02-17T15:51:32.906Z,19.9
2019-02-17T15:52:45.106Z,19.9
2019-02-17T15:53:57.308Z,19.9
2019-02-17T15:55:09.000Z,19.9
2019-02-17T15:56:21.685Z,19.9
2019-02-17T15:57:33.882Z,19.9
2019-02-17T15:58:46.076Z,19.9
2019-02-17T15:59:58.292Z,19.9
2019-02-17T16:01:10.457Z,19.9
2019-02-17T16:02:22.000Z,19.9
2019-02-17T16:03:34.851Z,19.9
2019-02-17T16:04:47.045Z,19.9
2019-02-17T16:05:59.233Z,19.9
2019-02-17T16:07:11.000Z,19.9
2019-02-17T16:08:23.632Z,19.9
2019-02-17T16:09:35.819Z,19.8
2019-02-17T16:10:48.014Z,19.8
2019-02-17T16:12:00.205Z,19.8
2019-02-17T16:13:12.399Z,19.8
2019-02-17T16:14:24.600Z,19.8
2019-02-17T16:15:36.784Z,19.8
2019-02-17T16:16:48.000Z,19.8
2019-02-17T16:18:01.017Z,19.8
2019-02-17T16:19:13.000Z,19.8
2019-02-17T16:20:25.576Z,19.8
2019-02-17T16:21:37.758Z,19.8
2019-02-17T16:22:49.000Z,19.8
2019-02-17T16:24:02.150Z,19.8
2019-02-17T16:25:14.349Z,19.8
2019-02-17T16:26:26.544Z,19.8
2019-02-17T16:27:38.742Z,19.8
2019-02-17T16:28:50.000Z,19.8
2019-02-17T16:30:03.013Z,19.8
2019-02-17T16:31:15.000Z,19.8
2019-02-17T16:32:27.052Z,19.8
2019-02-17T16:33:39.712Z,19.8
2019-02-17T16:34:51.904Z,19.8
2019-02-17T16:36:04.121Z,19.8
2019-02-17T16:37:16.298Z,19.8
2019-02-17T16:38:28.492Z,19.8